sensor_id;sensor_type;location;lat;lon;timestamp;P1;durP1;ratioP1;P2;durP2;ratioP2
41297;SDS011;27381;46.032;13.650;2022-12-07T00:00:49;8.75;;;3.70;;
41297;SDS011;27381;46.032;13.650;2022-12-07T00:03:14;8.43;;;4.13;;
41297;SDS011;27381;46.032;13.650;2022-12-07T00:05:40;6.70;;;2.95;;
41297;SDS011;27381;46.032;13.650;2022-12-07T00:08:05;5.38;;;3.85;;
41297;SDS011;27381;46.032;13.650;2022-12-07T00:10:32;4.75;;;2.67;;
41297;SDS011;27381;46.032;13.650;2022-12-07T00:12:58;3.22;;;2.45;;
41297;SDS011;27381;46.032;13.650;2022-12-07T00:15:23;5.88;;;3.38;;
41297;SDS011;27381;46.032;13.650;2022-12-07T00:17:48;7.68;;;3.08;;
41297;SDS011;27381;46.032;13.650;2022-12-07T00:20:14;3.75;;;2.70;;
41297;SDS011;27381;46.032;13.650;2022-12-07T00:22:39;4.68;;;3.08;;
41297;SDS011;27381;46.032;13.650;2022-12-07T00:25:05;4.78;;;2.88;;
41297;SDS011;27381;46.032;13.650;2022-12-07T00:27:30;5.47;;;3.28;;
41297;SDS011;27381;46.032;13.650;2022-12-07T00:29:55;2.58;;;2.00;;
41297;SDS011;27381;46.032;13.650;2022-12-07T00:32:21;6.90;;;2.60;;
41297;SDS011;27381;46.032;13.650;2022-12-07T00:34:46;4.10;;;1.83;;
41297;SDS011;27381;46.032;13.650;2022-12-07T00:37:12;7.63;;;3.42;;
41297;SDS011;27381;46.032;13.650;2022-12-07T00:39:38;2.53;;;2.33;;
41297;SDS011;27381;46.032;13.650;2022-12-07T00:42:03;4.30;;;2.65;;
41297;SDS011;27381;46.032;13.650;2022-12-07T00:44:28;4.07;;;2.25;;
41297;SDS011;27381;46.032;13.650;2022-12-07T00:46:54;5.10;;;2.65;;
41297;SDS011;27381;46.032;13.650;2022-12-07T00:49:20;6.40;;;3.63;;
41297;SDS011;27381;46.032;13.650;2022-12-07T00:51:47;3.88;;;2.42;;
41297;SDS011;27381;46.032;13.650;2022-12-07T00:54:13;4.72;;;3.20;;
41297;SDS011;27381;46.032;13.650;2022-12-07T00:56:38;6.95;;;3.45;;
41297;SDS011;27381;46.032;13.650;2022-12-07T00:59:03;2.65;;;2.33;;
41297;SDS011;27381;46.032;13.650;2022-12-07T01:01:30;2.67;;;2.35;;
41297;SDS011;27381;46.032;13.650;2022-12-07T01:03:56;3.60;;;2.35;;
41297;SDS011;27381;46.032;13.650;2022-12-07T01:06:22;2.55;;;2.13;;
41297;SDS011;27381;46.032;13.650;2022-12-07T01:08:48;6.20;;;2.25;;
41297;SDS011;27381;46.032;13.650;2022-12-07T01:11:15;2.97;;;2.03;;
41297;SDS011;27381;46.032;13.650;2022-12-07T01:13:41;2.95;;;2.58;;
41297;SDS011;27381;46.032;13.650;2022-12-07T01:16:06;5.53;;;3.20;;
41297;SDS011;27381;46.032;13.650;2022-12-07T01:18:33;3.38;;;2.83;;
41297;SDS011;27381;46.032;13.650;2022-12-07T01:23:27;5.80;;;3.20;;
41297;SDS011;27381;46.032;13.650;2022-12-07T01:25:56;4.13;;;2.85;;
41297;SDS011;27381;46.032;13.650;2022-12-07T01:28:22;4.07;;;2.85;;
41297;SDS011;27381;46.032;13.650;2022-12-07T01:31:09;4.88;;;3.10;;
41297;SDS011;27381;46.032;13.650;2022-12-07T01:33:34;3.03;;;2.20;;
41297;SDS011;27381;46.032;13.650;2022-12-07T01:38:55;4.05;;;2.75;;
41297;SDS011;27381;46.032;13.650;2022-12-07T01:41:21;4.40;;;2.03;;
41297;SDS011;27381;46.032;13.650;2022-12-07T01:46:31;2.97;;;1.90;;
41297;SDS011;27381;46.032;13.650;2022-12-07T01:48:56;2.97;;;1.83;;
41297;SDS011;27381;46.032;13.650;2022-12-07T01:51:21;3.33;;;2.80;;
41297;SDS011;27381;46.032;13.650;2022-12-07T01:53:47;5.43;;;3.20;;
41297;SDS011;27381;46.032;13.650;2022-12-07T01:56:14;3.25;;;2.67;;
41297;SDS011;27381;46.032;13.650;2022-12-07T01:58:40;4.47;;;2.20;;
41297;SDS011;27381;46.032;13.650;2022-12-07T02:01:06;6.70;;;3.10;;
41297;SDS011;27381;46.032;13.650;2022-12-07T02:03:32;3.50;;;2.47;;
41297;SDS011;27381;46.032;13.650;2022-12-07T02:05:59;4.05;;;2.58;;
41297;SDS011;27381;46.032;13.650;2022-12-07T02:08:25;4.15;;;2.13;;
41297;SDS011;27381;46.032;13.650;2022-12-07T02:10:50;4.07;;;2.35;;
41297;SDS011;27381;46.032;13.650;2022-12-07T02:13:16;3.03;;;2.22;;
41297;SDS011;27381;46.032;13.650;2022-12-07T02:20:58;4.75;;;2.47;;
41297;SDS011;27381;46.032;13.650;2022-12-07T02:29:01;5.88;;;3.35;;
41297;SDS011;27381;46.032;13.650;2022-12-07T02:31:30;2.90;;;1.77;;
41297;SDS011;27381;46.032;13.650;2022-12-07T02:34:04;4.55;;;2.05;;
41297;SDS011;27381;46.032;13.650;2022-12-07T02:36:31;4.80;;;1.85;;
41297;SDS011;27381;46.032;13.650;2022-12-07T02:39:02;2.58;;;1.77;;
41297;SDS011;27381;46.032;13.650;2022-12-07T02:41:32;8.93;;;2.70;;
41297;SDS011;27381;46.032;13.650;2022-12-07T02:43:59;4.13;;;2.08;;
41297;SDS011;27381;46.032;13.650;2022-12-07T02:46:33;4.97;;;2.85;;
41297;SDS011;27381;46.032;13.650;2022-12-07T02:49:00;4.15;;;2.58;;
41297;SDS011;27381;46.032;13.650;2022-12-07T02:51:25;3.90;;;2.42;;
41297;SDS011;27381;46.032;13.650;2022-12-07T02:53:51;4.30;;;2.60;;
41297;SDS011;27381;46.032;13.650;2022-12-07T02:58:49;3.95;;;2.17;;
41297;SDS011;27381;46.032;13.650;2022-12-07T03:01:21;6.72;;;3.03;;
41297;SDS011;27381;46.032;13.650;2022-12-07T03:03:54;2.58;;;2.15;;
41297;SDS011;27381;46.032;13.650;2022-12-07T03:06:42;2.30;;;1.45;;
41297;SDS011;27381;46.032;13.650;2022-12-07T03:09:20;4.97;;;2.20;;
41297;SDS011;27381;46.032;13.650;2022-12-07T03:11:49;4.07;;;2.05;;
41297;SDS011;27381;46.032;13.650;2022-12-07T03:14:22;3.58;;;2.17;;
41297;SDS011;27381;46.032;13.650;2022-12-07T03:16:51;9.98;;;2.40;;
41297;SDS011;27381;46.032;13.650;2022-12-07T03:19:19;2.97;;;1.90;;
41297;SDS011;27381;46.032;13.650;2022-12-07T03:24:18;5.72;;;2.25;;
41297;SDS011;27381;46.032;13.650;2022-12-07T03:26:49;4.70;;;2.15;;
41297;SDS011;27381;46.032;13.650;2022-12-07T03:29:20;2.85;;;2.03;;
41297;SDS011;27381;46.032;13.650;2022-12-07T03:31:49;5.60;;;2.22;;
41297;SDS011;27381;46.032;13.650;2022-12-07T03:36:51;10.25;;;1.88;;
41297;SDS011;27381;46.032;13.650;2022-12-07T03:41:56;4.50;;;2.33;;
41297;SDS011;27381;46.032;13.650;2022-12-07T03:44:23;5.00;;;2.22;;
41297;SDS011;27381;46.032;13.650;2022-12-07T03:49:23;3.63;;;2.10;;
41297;SDS011;27381;46.032;13.650;2022-12-07T03:52:03;2.47;;;1.67;;
41297;SDS011;27381;46.032;13.650;2022-12-07T03:54:35;6.80;;;3.10;;
41297;SDS011;27381;46.032;13.650;2022-12-07T03:57:02;2.28;;;1.95;;
41297;SDS011;27381;46.032;13.650;2022-12-07T03:59:29;3.53;;;2.85;;
41297;SDS011;27381;46.032;13.650;2022-12-07T04:01:55;2.33;;;1.88;;
41297;SDS011;27381;46.032;13.650;2022-12-07T04:04:22;3.35;;;2.53;;
41297;SDS011;27381;46.032;13.650;2022-12-07T04:06:48;3.67;;;1.85;;
41297;SDS011;27381;46.032;13.650;2022-12-07T04:09:13;4.43;;;1.30;;
41297;SDS011;27381;46.032;13.650;2022-12-07T04:11:39;3.40;;;1.70;;
41297;SDS011;27381;46.032;13.650;2022-12-07T04:14:05;6.38;;;1.98;;
41297;SDS011;27381;46.032;13.650;2022-12-07T04:19:14;2.40;;;2.05;;
41297;SDS011;27381;46.032;13.650;2022-12-07T04:21:39;5.45;;;2.13;;
41297;SDS011;27381;46.032;13.650;2022-12-07T04:24:05;2.55;;;1.80;;
41297;SDS011;27381;46.032;13.650;2022-12-07T04:26:30;2.28;;;1.42;;
41297;SDS011;27381;46.032;13.650;2022-12-07T04:28:56;5.13;;;2.40;;
41297;SDS011;27381;46.032;13.650;2022-12-07T04:31:21;2.83;;;1.92;;
41297;SDS011;27381;46.032;13.650;2022-12-07T04:33:46;2.90;;;1.73;;
41297;SDS011;27381;46.032;13.650;2022-12-07T04:36:12;2.92;;;2.00;;
41297;SDS011;27381;46.032;13.650;2022-12-07T04:38:37;5.28;;;2.33;;
41297;SDS011;27381;46.032;13.650;2022-12-07T04:41:06;2.78;;;1.63;;
41297;SDS011;27381;46.032;13.650;2022-12-07T04:43:32;1.48;;;1.35;;
41297;SDS011;27381;46.032;13.650;2022-12-07T04:45:57;1.58;;;1.20;;
41297;SDS011;27381;46.032;13.650;2022-12-07T04:48:22;2.88;;;1.40;;
41297;SDS011;27381;46.032;13.650;2022-12-07T04:50:48;3.45;;;1.70;;
41297;SDS011;27381;46.032;13.650;2022-12-07T04:53:14;2.85;;;1.50;;
41297;SDS011;27381;46.032;13.650;2022-12-07T04:55:40;4.95;;;2.08;;
41297;SDS011;27381;46.032;13.650;2022-12-07T04:58:05;4.65;;;1.67;;
41297;SDS011;27381;46.032;13.650;2022-12-07T05:00:31;2.88;;;1.95;;
41297;SDS011;27381;46.032;13.650;2022-12-07T05:02:56;3.30;;;1.67;;
41297;SDS011;27381;46.032;13.650;2022-12-07T05:05:21;2.08;;;1.33;;
41297;SDS011;27381;46.032;13.650;2022-12-07T05:07:47;2.05;;;1.30;;
41297;SDS011;27381;46.032;13.650;2022-12-07T05:10:12;1.40;;;1.30;;
41297;SDS011;27381;46.032;13.650;2022-12-07T05:12:38;2.45;;;1.38;;
41297;SDS011;27381;46.032;13.650;2022-12-07T05:15:03;3.50;;;2.80;;
41297;SDS011;27381;46.032;13.650;2022-12-07T05:17:29;2.40;;;1.65;;
41297;SDS011;27381;46.032;13.650;2022-12-07T05:19:54;3.15;;;1.67;;
41297;SDS011;27381;46.032;13.650;2022-12-07T05:22:19;2.67;;;1.40;;
41297;SDS011;27381;46.032;13.650;2022-12-07T05:24:45;2.75;;;1.42;;
41297;SDS011;27381;46.032;13.650;2022-12-07T05:27:10;5.38;;;1.77;;
41297;SDS011;27381;46.032;13.650;2022-12-07T05:29:35;2.88;;;1.90;;
41297;SDS011;27381;46.032;13.650;2022-12-07T05:32:01;1.10;;;1.00;;
41297;SDS011;27381;46.032;13.650;2022-12-07T05:34:26;2.45;;;1.40;;
41297;SDS011;27381;46.032;13.650;2022-12-07T05:36:51;4.40;;;2.08;;
41297;SDS011;27381;46.032;13.650;2022-12-07T05:39:17;3.20;;;1.67;;
41297;SDS011;27381;46.032;13.650;2022-12-07T05:41:42;3.55;;;1.67;;
41297;SDS011;27381;46.032;13.650;2022-12-07T05:44:26;1.75;;;1.48;;
41297;SDS011;27381;46.032;13.650;2022-12-07T05:46:52;3.33;;;1.35;;
41297;SDS011;27381;46.032;13.650;2022-12-07T05:49:17;4.20;;;1.92;;
41297;SDS011;27381;46.032;13.650;2022-12-07T05:51:42;3.35;;;2.08;;
41297;SDS011;27381;46.032;13.650;2022-12-07T05:54:08;1.88;;;1.25;;
41297;SDS011;27381;46.032;13.650;2022-12-07T05:56:33;3.03;;;1.77;;
41297;SDS011;27381;46.032;13.650;2022-12-07T05:58:59;1.85;;;1.63;;
41297;SDS011;27381;46.032;13.650;2022-12-07T06:01:43;4.88;;;2.30;;
41297;SDS011;27381;46.032;13.650;2022-12-07T06:04:08;3.40;;;1.63;;
41297;SDS011;27381;46.032;13.650;2022-12-07T06:06:33;2.03;;;1.63;;
41297;SDS011;27381;46.032;13.650;2022-12-07T06:08:59;4.45;;;1.92;;
41297;SDS011;27381;46.032;13.650;2022-12-07T06:11:24;4.05;;;2.38;;
41297;SDS011;27381;46.032;13.650;2022-12-07T06:14:08;3.28;;;1.92;;
41297;SDS011;27381;46.032;13.650;2022-12-07T06:16:34;2.15;;;1.40;;
41297;SDS011;27381;46.032;13.650;2022-12-07T06:19:00;2.65;;;1.50;;
41297;SDS011;27381;46.032;13.650;2022-12-07T06:21:26;2.50;;;1.48;;
41297;SDS011;27381;46.032;13.650;2022-12-07T06:23:52;1.70;;;1.40;;
41297;SDS011;27381;46.032;13.650;2022-12-07T06:26:17;1.90;;;1.35;;
41297;SDS011;27381;46.032;13.650;2022-12-07T06:28:43;2.20;;;1.95;;
41297;SDS011;27381;46.032;13.650;2022-12-07T06:31:08;3.88;;;2.03;;
41297;SDS011;27381;46.032;13.650;2022-12-07T06:33:34;5.13;;;1.15;;
41297;SDS011;27381;46.032;13.650;2022-12-07T06:36:00;3.35;;;1.67;;
41297;SDS011;27381;46.032;13.650;2022-12-07T06:38:25;1.80;;;1.10;;
41297;SDS011;27381;46.032;13.650;2022-12-07T06:40:51;2.60;;;1.42;;
41297;SDS011;27381;46.032;13.650;2022-12-07T06:43:16;1.90;;;0.90;;
41297;SDS011;27381;46.032;13.650;2022-12-07T06:45:42;2.53;;;1.70;;
41297;SDS011;27381;46.032;13.650;2022-12-07T06:48:08;4.40;;;2.30;;
41297;SDS011;27381;46.032;13.650;2022-12-07T06:50:33;3.78;;;1.65;;
41297;SDS011;27381;46.032;13.650;2022-12-07T06:52:59;4.18;;;1.52;;
41297;SDS011;27381;46.032;13.650;2022-12-07T06:55:24;1.60;;;1.25;;
41297;SDS011;27381;46.032;13.650;2022-12-07T06:57:50;4.40;;;2.42;;
41297;SDS011;27381;46.032;13.650;2022-12-07T07:00:15;2.63;;;1.90;;
41297;SDS011;27381;46.032;13.650;2022-12-07T07:02:41;2.47;;;1.30;;
41297;SDS011;27381;46.032;13.650;2022-12-07T07:05:06;3.05;;;1.38;;
41297;SDS011;27381;46.032;13.650;2022-12-07T07:07:32;3.85;;;2.17;;
41297;SDS011;27381;46.032;13.650;2022-12-07T07:09:57;1.70;;;1.20;;
41297;SDS011;27381;46.032;13.650;2022-12-07T07:12:23;1.85;;;1.55;;
41297;SDS011;27381;46.032;13.650;2022-12-07T07:14:48;3.22;;;1.80;;
41297;SDS011;27381;46.032;13.650;2022-12-07T07:17:13;10.02;;;4.20;;
41297;SDS011;27381;46.032;13.650;2022-12-07T07:19:39;4.25;;;2.30;;
41297;SDS011;27381;46.032;13.650;2022-12-07T07:22:04;2.75;;;2.28;;
41297;SDS011;27381;46.032;13.650;2022-12-07T07:24:30;2.50;;;1.35;;
41297;SDS011;27381;46.032;13.650;2022-12-07T07:26:55;3.97;;;2.33;;
41297;SDS011;27381;46.032;13.650;2022-12-07T07:29:21;6.75;;;2.25;;
41297;SDS011;27381;46.032;13.650;2022-12-07T07:31:46;2.50;;;1.92;;
41297;SDS011;27381;46.032;13.650;2022-12-07T07:34:12;5.13;;;2.58;;
41297;SDS011;27381;46.032;13.650;2022-12-07T07:36:37;6.40;;;2.03;;
41297;SDS011;27381;46.032;13.650;2022-12-07T07:39:03;3.65;;;1.92;;
41297;SDS011;27381;46.032;13.650;2022-12-07T07:41:28;3.78;;;2.17;;
41297;SDS011;27381;46.032;13.650;2022-12-07T07:43:54;1.67;;;0.93;;
41297;SDS011;27381;46.032;13.650;2022-12-07T07:46:19;3.28;;;1.85;;
41297;SDS011;27381;46.032;13.650;2022-12-07T07:48:45;2.85;;;2.03;;
41297;SDS011;27381;46.032;13.650;2022-12-07T07:51:10;3.00;;;1.80;;
41297;SDS011;27381;46.032;13.650;2022-12-07T07:53:36;2.83;;;1.98;;
41297;SDS011;27381;46.032;13.650;2022-12-07T07:56:02;2.17;;;1.20;;
41297;SDS011;27381;46.032;13.650;2022-12-07T07:58:27;2.33;;;1.40;;
41297;SDS011;27381;46.032;13.650;2022-12-07T08:00:52;2.95;;;1.30;;
41297;SDS011;27381;46.032;13.650;2022-12-07T08:03:18;2.70;;;1.60;;
41297;SDS011;27381;46.032;13.650;2022-12-07T08:05:44;3.70;;;1.95;;
41297;SDS011;27381;46.032;13.650;2022-12-07T08:08:09;2.10;;;1.98;;
41297;SDS011;27381;46.032;13.650;2022-12-07T08:10:34;1.30;;;1.17;;
41297;SDS011;27381;46.032;13.650;2022-12-07T08:13:00;4.68;;;1.65;;
41297;SDS011;27381;46.032;13.650;2022-12-07T08:15:42;6.53;;;2.83;;
41297;SDS011;27381;46.032;13.650;2022-12-07T08:18:08;2.42;;;1.50;;
41297;SDS011;27381;46.032;13.650;2022-12-07T08:20:34;1.85;;;1.33;;
41297;SDS011;27381;46.032;13.650;2022-12-07T08:23:00;2.58;;;1.52;;
41297;SDS011;27381;46.032;13.650;2022-12-07T08:25:25;2.60;;;1.50;;
41297;SDS011;27381;46.032;13.650;2022-12-07T08:27:51;2.15;;;1.27;;
41297;SDS011;27381;46.032;13.650;2022-12-07T08:30:17;2.92;;;1.27;;
41297;SDS011;27381;46.032;13.650;2022-12-07T08:32:44;1.52;;;1.30;;
41297;SDS011;27381;46.032;13.650;2022-12-07T08:35:09;6.00;;;1.33;;
41297;SDS011;27381;46.032;13.650;2022-12-07T08:37:35;1.65;;;1.35;;
41297;SDS011;27381;46.032;13.650;2022-12-07T08:40:00;3.03;;;1.50;;
41297;SDS011;27381;46.032;13.650;2022-12-07T08:42:26;2.33;;;1.70;;
41297;SDS011;27381;46.032;13.650;2022-12-07T08:44:55;2.15;;;1.48;;
41297;SDS011;27381;46.032;13.650;2022-12-07T08:47:22;1.65;;;1.55;;
41297;SDS011;27381;46.032;13.650;2022-12-07T08:49:48;2.20;;;1.52;;
41297;SDS011;27381;46.032;13.650;2022-12-07T08:52:15;5.75;;;2.20;;
41297;SDS011;27381;46.032;13.650;2022-12-07T08:54:41;4.85;;;2.17;;
41297;SDS011;27381;46.032;13.650;2022-12-07T08:57:07;3.47;;;1.80;;
41297;SDS011;27381;46.032;13.650;2022-12-07T08:59:33;2.08;;;1.48;;
41297;SDS011;27381;46.032;13.650;2022-12-07T09:02:00;3.05;;;1.75;;
41297;SDS011;27381;46.032;13.650;2022-12-07T09:04:26;2.22;;;1.00;;
41297;SDS011;27381;46.032;13.650;2022-12-07T09:06:51;2.97;;;1.15;;
41297;SDS011;27381;46.032;13.650;2022-12-07T09:09:17;2.55;;;1.40;;
41297;SDS011;27381;46.032;13.650;2022-12-07T09:11:42;1.45;;;1.35;;
41297;SDS011;27381;46.032;13.650;2022-12-07T09:14:09;1.40;;;1.08;;
41297;SDS011;27381;46.032;13.650;2022-12-07T09:16:35;2.40;;;2.00;;
41297;SDS011;27381;46.032;13.650;2022-12-07T09:19:00;3.50;;;1.48;;
41297;SDS011;27381;46.032;13.650;2022-12-07T09:21:25;1.77;;;1.42;;
41297;SDS011;27381;46.032;13.650;2022-12-07T09:23:51;4.07;;;1.52;;
41297;SDS011;27381;46.032;13.650;2022-12-07T09:26:16;1.88;;;1.33;;
41297;SDS011;27381;46.032;13.650;2022-12-07T09:28:42;4.05;;;1.50;;
41297;SDS011;27381;46.032;13.650;2022-12-07T09:31:07;2.15;;;1.10;;
41297;SDS011;27381;46.032;13.650;2022-12-07T09:33:33;2.00;;;1.27;;
41297;SDS011;27381;46.032;13.650;2022-12-07T09:35:58;3.92;;;0.95;;
41297;SDS011;27381;46.032;13.650;2022-12-07T09:38:24;2.90;;;1.58;;
41297;SDS011;27381;46.032;13.650;2022-12-07T09:40:51;3.38;;;1.63;;
41297;SDS011;27381;46.032;13.650;2022-12-07T09:43:18;3.95;;;2.20;;
41297;SDS011;27381;46.032;13.650;2022-12-07T09:45:45;1.10;;;1.00;;
41297;SDS011;27381;46.032;13.650;2022-12-07T09:48:19;1.42;;;1.27;;
41297;SDS011;27381;46.032;13.650;2022-12-07T09:50:46;1.90;;;1.33;;
41297;SDS011;27381;46.032;13.650;2022-12-07T09:53:18;2.05;;;1.55;;
41297;SDS011;27381;46.032;13.650;2022-12-07T09:55:46;1.00;;;1.00;;
41297;SDS011;27381;46.032;13.650;2022-12-07T09:58:16;3.40;;;0.95;;
41297;SDS011;27381;46.032;13.650;2022-12-07T10:00:43;2.60;;;2.30;;
41297;SDS011;27381;46.032;13.650;2022-12-07T10:03:09;3.10;;;1.42;;
41297;SDS011;27381;46.032;13.650;2022-12-07T10:05:47;2.78;;;1.27;;
41297;SDS011;27381;46.032;13.650;2022-12-07T10:08:14;4.15;;;1.15;;
41297;SDS011;27381;46.032;13.650;2022-12-07T10:10:43;1.70;;;1.52;;
41297;SDS011;27381;46.032;13.650;2022-12-07T10:13:10;2.50;;;1.15;;
41297;SDS011;27381;46.032;13.650;2022-12-07T10:15:56;2.22;;;1.60;;
41297;SDS011;27381;46.032;13.650;2022-12-07T10:18:26;1.05;;;1.02;;
41297;SDS011;27381;46.032;13.650;2022-12-07T10:23:36;3.85;;;1.75;;
41297;SDS011;27381;46.032;13.650;2022-12-07T10:28:47;1.45;;;1.35;;
41297;SDS011;27381;46.032;13.650;2022-12-07T10:31:21;2.45;;;1.05;;
41297;SDS011;27381;46.032;13.650;2022-12-07T10:36:17;3.97;;;1.27;;
41297;SDS011;27381;46.032;13.650;2022-12-07T10:38:45;2.25;;;1.63;;
41297;SDS011;27381;46.032;13.650;2022-12-07T10:41:11;1.73;;;1.02;;
41297;SDS011;27381;46.032;13.650;2022-12-07T10:43:36;2.97;;;1.60;;
41297;SDS011;27381;46.032;13.650;2022-12-07T10:48:50;2.22;;;1.30;;
41297;SDS011;27381;46.032;13.650;2022-12-07T10:53:46;0.85;;;0.80;;
41297;SDS011;27381;46.032;13.650;2022-12-07T11:06:39;1.50;;;0.80;;
41297;SDS011;27381;46.032;13.650;2022-12-07T11:19:22;1.70;;;0.95;;
41297;SDS011;27381;46.032;13.650;2022-12-07T11:24:17;0.93;;;0.80;;
41297;SDS011;27381;46.032;13.650;2022-12-07T11:26:50;0.55;;;0.55;;
41297;SDS011;27381;46.032;13.650;2022-12-07T11:32:04;0.68;;;0.60;;
41297;SDS011;27381;46.032;13.650;2022-12-07T11:36:58;0.82;;;0.63;;
41297;SDS011;27381;46.032;13.650;2022-12-07T11:39:35;0.63;;;0.60;;
41297;SDS011;27381;46.032;13.650;2022-12-07T11:42:06;1.08;;;0.77;;
41297;SDS011;27381;46.032;13.650;2022-12-07T11:52:09;1.05;;;0.73;;
41297;SDS011;27381;46.032;13.650;2022-12-07T11:54:35;0.73;;;0.57;;
41297;SDS011;27381;46.032;13.650;2022-12-07T11:57:07;0.47;;;0.47;;
41297;SDS011;27381;46.032;13.650;2022-12-07T11:59:43;1.17;;;0.75;;
41297;SDS011;27381;46.032;13.650;2022-12-07T12:02:19;1.42;;;1.00;;
41297;SDS011;27381;46.032;13.650;2022-12-07T12:07:15;0.55;;;0.55;;
41297;SDS011;27381;46.032;13.650;2022-12-07T12:10:05;0.75;;;0.73;;
41297;SDS011;27381;46.032;13.650;2022-12-07T12:17:39;1.45;;;0.88;;
41297;SDS011;27381;46.032;13.650;2022-12-07T12:22:39;1.05;;;0.95;;
41297;SDS011;27381;46.032;13.650;2022-12-07T12:25:07;1.25;;;0.90;;
41297;SDS011;27381;46.032;13.650;2022-12-07T12:27:40;0.90;;;0.68;;
41297;SDS011;27381;46.032;13.650;2022-12-07T12:33:45;0.50;;;0.50;;
41297;SDS011;27381;46.032;13.650;2022-12-07T12:47:01;1.83;;;0.95;;
41297;SDS011;27381;46.032;13.650;2022-12-07T12:49:32;2.35;;;0.70;;
41297;SDS011;27381;46.032;13.650;2022-12-07T12:51:59;0.40;;;0.40;;
41297;SDS011;27381;46.032;13.650;2022-12-07T12:54:25;0.57;;;0.45;;
41297;SDS011;27381;46.032;13.650;2022-12-07T12:56:57;0.60;;;0.60;;
41297;SDS011;27381;46.032;13.650;2022-12-07T12:59:35;1.95;;;0.80;;
41297;SDS011;27381;46.032;13.650;2022-12-07T13:07:13;0.95;;;0.63;;
41297;SDS011;27381;46.032;13.650;2022-12-07T13:09:41;1.75;;;1.13;;
41297;SDS011;27381;46.032;13.650;2022-12-07T13:12:14;0.60;;;0.60;;
41297;SDS011;27381;46.032;13.650;2022-12-07T13:14:41;3.35;;;0.65;;
41297;SDS011;27381;46.032;13.650;2022-12-07T13:17:11;0.65;;;0.63;;
41297;SDS011;27381;46.032;13.650;2022-12-07T13:22:48;1.02;;;0.93;;
41297;SDS011;27381;46.032;13.650;2022-12-07T13:24:59;0.77;;;0.77;;
41297;SDS011;27381;46.032;13.650;2022-12-07T13:27:27;1.00;;;0.77;;
41297;SDS011;27381;46.032;13.650;2022-12-07T13:29:54;1.35;;;0.85;;
41297;SDS011;27381;46.032;13.650;2022-12-07T13:32:25;1.52;;;1.15;;
41297;SDS011;27381;46.032;13.650;2022-12-07T13:34:50;2.25;;;1.02;;
41297;SDS011;27381;46.032;13.650;2022-12-07T13:39:51;0.73;;;0.73;;
41297;SDS011;27381;46.032;13.650;2022-12-07T13:42:24;0.80;;;0.80;;
41297;SDS011;27381;46.032;13.650;2022-12-07T13:49:54;0.57;;;0.50;;
41297;SDS011;27381;46.032;13.650;2022-12-07T13:54:46;1.23;;;0.70;;
41297;SDS011;27381;46.032;13.650;2022-12-07T13:57:11;0.70;;;0.65;;
41297;SDS011;27381;46.032;13.650;2022-12-07T13:59:37;0.55;;;0.55;;
41297;SDS011;27381;46.032;13.650;2022-12-07T14:02:17;0.73;;;0.73;;
41297;SDS011;27381;46.032;13.650;2022-12-07T14:04:43;0.93;;;0.70;;
41297;SDS011;27381;46.032;13.650;2022-12-07T14:07:18;1.83;;;0.60;;
41297;SDS011;27381;46.032;13.650;2022-12-07T14:09:53;0.93;;;0.93;;
41297;SDS011;27381;46.032;13.650;2022-12-07T14:12:19;0.68;;;0.65;;
41297;SDS011;27381;46.032;13.650;2022-12-07T14:14:46;0.55;;;0.50;;
41297;SDS011;27381;46.032;13.650;2022-12-07T14:17:15;0.68;;;0.60;;
41297;SDS011;27381;46.032;13.650;2022-12-07T14:19:48;0.95;;;0.70;;
41297;SDS011;27381;46.032;13.650;2022-12-07T14:22:56;0.50;;;0.50;;
41297;SDS011;27381;46.032;13.650;2022-12-07T14:27:38;0.30;;;0.30;;
41297;SDS011;27381;46.032;13.650;2022-12-07T14:30:04;0.63;;;0.60;;
41297;SDS011;27381;46.032;13.650;2022-12-07T14:32:30;0.70;;;0.60;;
41297;SDS011;27381;46.032;13.650;2022-12-07T14:35:08;0.40;;;0.40;;
41297;SDS011;27381;46.032;13.650;2022-12-07T14:37:35;1.55;;;1.13;;
41297;SDS011;27381;46.032;13.650;2022-12-07T14:40:01;0.52;;;0.52;;
41297;SDS011;27381;46.032;13.650;2022-12-07T14:42:27;2.35;;;1.25;;
41297;SDS011;27381;46.032;13.650;2022-12-07T14:44:54;0.30;;;0.30;;
41297;SDS011;27381;46.032;13.650;2022-12-07T14:47:19;0.75;;;0.75;;
41297;SDS011;27381;46.032;13.650;2022-12-07T14:49:45;1.50;;;0.45;;
41297;SDS011;27381;46.032;13.650;2022-12-07T14:52:15;1.10;;;0.82;;
41297;SDS011;27381;46.032;13.650;2022-12-07T14:54:41;0.40;;;0.40;;
41297;SDS011;27381;46.032;13.650;2022-12-07T14:57:11;0.57;;;0.57;;
41297;SDS011;27381;46.032;13.650;2022-12-07T14:59:37;1.00;;;0.73;;
41297;SDS011;27381;46.032;13.650;2022-12-07T15:02:02;2.00;;;0.93;;
41297;SDS011;27381;46.032;13.650;2022-12-07T15:04:28;1.08;;;1.05;;
41297;SDS011;27381;46.032;13.650;2022-12-07T15:06:54;0.93;;;0.75;;
41297;SDS011;27381;46.032;13.650;2022-12-07T15:09:20;3.17;;;0.88;;
41297;SDS011;27381;46.032;13.650;2022-12-07T15:11:46;0.60;;;0.60;;
41297;SDS011;27381;46.032;13.650;2022-12-07T15:14:11;2.05;;;1.00;;
41297;SDS011;27381;46.032;13.650;2022-12-07T15:16:38;1.73;;;0.65;;
41297;SDS011;27381;46.032;13.650;2022-12-07T15:19:17;1.15;;;1.05;;
41297;SDS011;27381;46.032;13.650;2022-12-07T15:21:43;1.75;;;1.10;;
41297;SDS011;27381;46.032;13.650;2022-12-07T15:24:10;1.60;;;1.05;;
41297;SDS011;27381;46.032;13.650;2022-12-07T15:26:36;0.85;;;0.85;;
41297;SDS011;27381;46.032;13.650;2022-12-07T15:29:01;2.08;;;1.17;;
41297;SDS011;27381;46.032;13.650;2022-12-07T15:31:27;1.30;;;1.05;;
41297;SDS011;27381;46.032;13.650;2022-12-07T15:33:52;1.25;;;1.15;;
41297;SDS011;27381;46.032;13.650;2022-12-07T15:36:19;1.95;;;1.10;;
41297;SDS011;27381;46.032;13.650;2022-12-07T15:38:46;1.00;;;0.73;;
41297;SDS011;27381;46.032;13.650;2022-12-07T15:41:12;2.00;;;1.00;;
41297;SDS011;27381;46.032;13.650;2022-12-07T15:43:37;1.40;;;1.30;;
41297;SDS011;27381;46.032;13.650;2022-12-07T15:46:21;0.65;;;0.63;;
41297;SDS011;27381;46.032;13.650;2022-12-07T15:48:46;0.82;;;0.82;;
41297;SDS011;27381;46.032;13.650;2022-12-07T15:51:12;0.98;;;0.57;;
41297;SDS011;27381;46.032;13.650;2022-12-07T15:53:38;2.03;;;0.98;;
41297;SDS011;27381;46.032;13.650;2022-12-07T15:56:06;0.60;;;0.50;;
41297;SDS011;27381;46.032;13.650;2022-12-07T15:58:32;0.93;;;0.70;;
41297;SDS011;27381;46.032;13.650;2022-12-07T16:00:58;1.42;;;0.95;;
41297;SDS011;27381;46.032;13.650;2022-12-07T16:03:23;0.57;;;0.57;;
41297;SDS011;27381;46.032;13.650;2022-12-07T16:05:50;1.30;;;0.80;;
41297;SDS011;27381;46.032;13.650;2022-12-07T16:08:15;0.90;;;0.70;;
41297;SDS011;27381;46.032;13.650;2022-12-07T16:10:41;1.88;;;0.45;;
41297;SDS011;27381;46.032;13.650;2022-12-07T16:13:11;2.05;;;1.27;;
41297;SDS011;27381;46.032;13.650;2022-12-07T16:15:40;0.70;;;0.70;;
41297;SDS011;27381;46.032;13.650;2022-12-07T16:18:06;1.25;;;1.00;;
41297;SDS011;27381;46.032;13.650;2022-12-07T16:20:31;0.90;;;0.90;;
41297;SDS011;27381;46.032;13.650;2022-12-07T16:22:57;3.10;;;1.27;;
41297;SDS011;27381;46.032;13.650;2022-12-07T16:25:23;0.57;;;0.55;;
41297;SDS011;27381;46.032;13.650;2022-12-07T16:27:48;1.45;;;0.68;;
41297;SDS011;27381;46.032;13.650;2022-12-07T16:30:14;0.60;;;0.60;;
41297;SDS011;27381;46.032;13.650;2022-12-07T16:32:41;1.70;;;1.05;;
41297;SDS011;27381;46.032;13.650;2022-12-07T16:35:07;0.93;;;0.85;;
41297;SDS011;27381;46.032;13.650;2022-12-07T16:37:33;0.90;;;0.60;;
41297;SDS011;27381;46.032;13.650;2022-12-07T16:39:59;0.47;;;0.47;;
41297;SDS011;27381;46.032;13.650;2022-12-07T16:42:24;0.45;;;0.43;;